This is the latest recevied weather packets stored in our database for station/object KF3BH. If no packets are shown the sender has not sent any weather packets the latest 10 day(s).
| Time | Temp. | Humidity | Pressure | Rain* | Wind** | Luminosity | Snow |
|---|---|---|---|---|---|---|---|
| 1777717825 | 2.78° C | 93% | 1014.5 hPa | 0 mm | - | 7 W/m² | - |
| 1777715426 | 3.33° C | 92% | 1014.3 hPa | 0 mm | - | 0 W/m² | - |
| 1777712425 | 4.44° C | 91% | 1013.6 hPa | 0 mm | - | 0 W/m² | - |
| 1777708225 | 5.56° C | 94% | 1013.1 hPa | 1.52 mm | - | 0 W/m² | - |
| 1777705225 | 7.22° C | 95% | 1012.2 hPa | 0.76 mm | - | 0 W/m² | - |
| 1777702825 | 7.22° C | 96% | 1012.5 hPa | 0 mm | - | 0 W/m² | - |
| 1777698025 | 7.78° C | 96% | 1013.2 hPa | 0.25 mm | - | 0 W/m² | - |
| 1777686025 | 7.78° C | 94% | 1013.2 hPa | 0.25 mm | - | 0 W/m² | - |
| 1777683025 | 7.78° C | 93% | 1012.6 hPa | 0.25 mm | - | 0 W/m² | - |
| 1777679425 | 7.78° C | 89% | 1012.2 hPa | 0.51 mm | - | 5 W/m² | - |
| 1777666825 | 13.33° C | 51% | 1011.1 hPa | 0 mm | - | 60 W/m² | - |
| 1777660225 | 16.11° C | 49% | 1012.2 hPa | 0 mm | - | 856 W/m² | - |
| 1777659025 | 15.56° C | 44% | 1012.2 hPa | 0 mm | - | 861 W/m² | - |
| 1777654225 | 12.78° C | 48% | 1013.1 hPa | 0 mm | - | 742 W/m² | - |
| 1777641026 | 7.78° C | 79% | 1014.8 hPa | 0 mm | - | 413 W/m² | - |
| 1777640425 | 7.22° C | 81% | 1015 hPa | 0 mm | - | 378 W/m² | - |
| 1777637425 | 3.89° C | 94% | 1015.1 hPa | 0 mm | - | 149 W/m² | - |
| 1777632026 | 2.22° C | 94% | 1014.6 hPa | 0 mm | - | 12 W/m² | - |
| 1777627825 | 2.78° C | 93% | 1014 hPa | 0 mm | - | 0 W/m² | - |
| 1777620025 | 4.44° C | 91% | 1013.7 hPa | 0 mm | - | 0 W/m² | - |
| 1777617025 | 5° C | 90% | 1013.7 hPa | 0 mm | - | 0 W/m² | - |
| 1777615825 | 5° C | 89% | 1013.8 hPa | 0 mm | - | 0 W/m² | - |
| 1777615225 | 5° C | 89% | 1013.7 hPa | 0 mm | - | 0 W/m² | - |
| 1777614625 | 5° C | 89% | 1013.8 hPa | 0 mm | - | 0 W/m² | - |
| 1777614025 | 5° C | 90% | 1013.8 hPa | 0 mm | - | 0 W/m² | - |
* Rain latest hour (hover to see other rain measurements)
** Current wind speed in m/s (hover to see current wind gust speed)